Time,TemperatureF,DewpointF,PressureIn,WindDirection,WindDirectionDegrees,WindSpeedMPH,WindSpeedGustMPH,Humidity,HourlyPrecipIn,Conditions,Clouds,dailyrainin,SolarRadiationWatts/m^2,SoftwareType,DateUTC
2013-04-23 00:01:00,17.0,5.0,-100.00,NNW,345,2.0,7.0,59,0.00,,,0.02,0.000000,,2013-04-23 06:01:00,
2013-04-23 00:12:00,17.0,5.0,-100.00,NNW,345,2.0,7.0,59,0.00,,,0.02,0.000000,,2013-04-23 06:12:00,
2013-04-23 00:21:00,17.0,5.0,-100.00,NNW,345,2.0,7.0,59,0.00,,,0.02,0.000000,,2013-04-23 06:21:00,
2013-04-23 00:32:00,17.0,5.0,-100.00,NNW,345,2.0,7.0,59,0.00,,,0.02,0.000000,,2013-04-23 06:32:00,
2013-04-23 01:02:00,14.0,5.0,-100.00,NNE,29,2.0,4.0,67,0.00,,,0.02,0.000000,,2013-04-23 07:02:00,
2013-04-23 01:11:00,14.0,5.0,-100.00,NNE,29,2.0,4.0,67,0.00,,,0.02,0.000000,,2013-04-23 07:11:00,
2013-04-23 01:21:00,14.0,5.0,-100.00,NNE,29,2.0,4.0,67,0.00,,,0.02,0.000000,,2013-04-23 07:21:00,
2013-04-23 01:32:00,14.0,5.0,-100.00,NNE,29,2.0,4.0,67,0.00,,,0.02,0.000000,,2013-04-23 07:32:00,
2013-04-23 02:02:00,13.0,6.0,-100.00,South,183,2.0,5.0,72,0.00,,,0.02,0.000000,,2013-04-23 08:02:00,
2013-04-23 02:11:00,13.0,6.0,-100.00,South,183,2.0,5.0,72,0.00,,,0.02,0.000000,,2013-04-23 08:11:00,
2013-04-23 02:21:00,13.0,6.0,-100.00,South,183,2.0,5.0,72,0.00,,,0.02,0.000000,,2013-04-23 08:21:00,
2013-04-23 02:31:00,13.0,6.0,-100.00,South,183,2.0,5.0,72,0.00,,,0.02,0.000000,,2013-04-23 08:31:00,
2013-04-23 03:01:00,10.0,4.0,-100.00,NW,304,0.0,3.0,76,0.00,,,0.02,0.000000,,2013-04-23 09:01:00,
2013-04-23 03:11:00,10.0,4.0,-100.00,NW,304,0.0,3.0,76,0.00,,,0.02,0.000000,,2013-04-23 09:11:00,
2013-04-23 03:21:00,10.0,4.0,-100.00,NW,304,0.0,3.0,76,0.00,,,0.02,0.000000,,2013-04-23 09:21:00,
2013-04-23 03:32:00,10.0,4.0,-100.00,NW,304,0.0,3.0,76,0.00,,,0.02,0.000000,,2013-04-23 09:32:00,
2013-04-23 04:02:00,8.0,4.0,-100.00,NE,41,0.0,2.0,82,0.00,,,0.01,0.000000,,2013-04-23 10:02:00,
2013-04-23 04:12:00,8.0,4.0,-100.00,NE,41,0.0,2.0,82,0.00,,,0.01,0.000000,,2013-04-23 10:12:00,
2013-04-23 04:22:00,8.0,4.0,-100.00,NE,41,0.0,2.0,82,0.00,,,0.01,0.000000,,2013-04-23 10:22:00,
2013-04-23 04:32:00,8.0,4.0,-100.00,NE,41,0.0,2.0,82,0.00,,,0.01,0.000000,,2013-04-23 10:32:00,
2013-04-23 05:02:00,7.0,2.0,-100.00,SSW,211,0.0,3.0,80,0.00,,,0.00,0.000000,,2013-04-23 11:02:00,
2013-04-23 05:12:00,7.0,2.0,-100.00,SSW,211,0.0,3.0,80,0.00,,,0.00,0.000000,,2013-04-23 11:12:00,
2013-04-23 05:21:00,7.0,2.0,-100.00,SSW,211,0.0,3.0,80,0.00,,,0.00,0.000000,,2013-04-23 11:21:00,
2013-04-23 05:32:00,7.0,2.0,-100.00,SSW,211,0.0,3.0,80,0.00,,,0.00,0.000000,,2013-04-23 11:32:00,
2013-04-23 06:02:00,5.0,0.0,-100.00,South,182,0.0,3.0,79,0.00,,,0.00,0.000000,,2013-04-23 12:02:00,
2013-04-23 06:12:00,5.0,0.0,-100.00,South,182,0.0,3.0,79,0.00,,,0.00,0.000000,,2013-04-23 12:12:00,
2013-04-23 06:22:00,5.0,0.0,-100.00,South,182,0.0,3.0,79,0.00,,,0.00,0.000000,,2013-04-23 12:22:00,
2013-04-23 06:32:00,5.0,0.0,-100.00,South,182,0.0,3.0,79,0.00,,,0.00,0.000000,,2013-04-23 12:32:00,
2013-04-23 07:01:00,4.0,0.0,-100.00,SE,144,0.0,2.0,82,0.00,,,0.00,1.000000,,2013-04-23 13:01:00,
2013-04-23 07:11:00,4.0,0.0,-100.00,SE,144,0.0,2.0,82,0.00,,,0.00,1.000000,,2013-04-23 13:11:00,
2013-04-23 07:21:00,4.0,0.0,-100.00,SE,144,0.0,2.0,82,0.00,,,0.00,1.000000,,2013-04-23 13:21:00,
2013-04-23 07:32:00,4.0,0.0,-100.00,SE,144,0.0,2.0,82,0.00,,,0.00,1.000000,,2013-04-23 13:32:00,
2013-04-23 08:01:00,7.0,0.0,-100.00,SSW,207,1.0,2.0,74,0.00,,,0.00,20.000000,,2013-04-23 14:01:00,
2013-04-23 08:11:00,7.0,0.0,-100.00,SSW,207,1.0,2.0,74,0.00,,,0.00,20.000000,,2013-04-23 14:11:00,
2013-04-23 08:22:00,7.0,0.0,-100.00,SSW,207,1.0,2.0,74,0.00,,,0.00,20.000000,,2013-04-23 14:22:00,
2013-04-23 08:31:00,7.0,0.0,-100.00,SSW,207,1.0,2.0,74,0.00,,,0.00,20.000000,,2013-04-23 14:31:00,
2013-04-23 09:01:00,19.0,6.0,-100.00,WSW,240,1.0,3.0,56,0.00,,,0.00,256.000000,,2013-04-23 15:01:00,
2013-04-23 09:12:00,19.0,6.0,-100.00,WSW,240,1.0,3.0,56,0.00,,,0.00,256.000000,,2013-04-23 15:12:00,
2013-04-23 09:21:00,19.0,6.0,-100.00,WSW,240,1.0,3.0,56,0.00,,,0.00,256.000000,,2013-04-23 15:21:00,
2013-04-23 09:32:00,19.0,6.0,-100.00,WSW,240,1.0,3.0,56,0.00,,,0.00,256.000000,,2013-04-23 15:32:00,
2013-04-23 10:02:00,26.0,8.0,-100.00,WNW,287,2.0,5.0,46,0.00,,,0.00,415.000000,,2013-04-23 16:02:00,
2013-04-23 11:02:00,29.0,1.0,-100.00,North,3,2.0,5.0,29,0.00,,,0.00,682.000000,,2013-04-23 17:02:00,
2013-04-23 11:11:00,29.0,1.0,-100.00,North,3,2.0,5.0,29,0.00,,,0.00,682.000000,,2013-04-23 17:11:00,
2013-04-23 11:22:00,29.0,1.0,-100.00,North,3,2.0,5.0,29,0.00,,,0.00,682.000000,,2013-04-23 17:22:00,
2013-04-23 11:32:00,29.0,1.0,-100.00,North,3,2.0,5.0,29,0.00,,,0.00,682.000000,,2013-04-23 17:32:00,
2013-04-23 12:02:00,36.0,6.0,-100.00,NNW,337,3.0,7.0,28,0.00,,,0.00,847.000000,,2013-04-23 18:02:00,
2013-04-23 12:12:00,36.0,6.0,-100.00,NNW,337,3.0,7.0,28,0.00,,,0.00,847.000000,,2013-04-23 18:12:00,
2013-04-23 12:22:00,36.0,6.0,-100.00,NNW,337,3.0,7.0,28,0.00,,,0.00,847.000000,,2013-04-23 18:22:00,
2013-04-23 12:31:00,36.0,6.0,-100.00,NNW,337,3.0,7.0,28,0.00,,,0.00,847.000000,,2013-04-23 18:31:00,
2013-04-23 13:02:00,38.0,6.0,-100.00,SW,227,4.0,10.0,26,0.00,,,0.00,952.000000,,2013-04-23 19:02:00,
2013-04-23 13:11:00,38.0,6.0,-100.00,SW,227,4.0,10.0,26,0.00,,,0.00,952.000000,,2013-04-23 19:11:00,
2013-04-23 13:21:00,38.0,6.0,-100.00,SW,227,4.0,10.0,26,0.00,,,0.00,952.000000,,2013-04-23 19:21:00,
2013-04-23 13:32:00,38.0,6.0,-100.00,SW,227,4.0,10.0,26,0.00,,,0.00,952.000000,,2013-04-23 19:32:00,
2013-04-23 14:01:00,40.0,11.0,-100.00,South,191,4.0,12.0,30,0.00,,,0.00,911.000000,,2013-04-23 20:01:00,
2013-04-23 14:11:00,40.0,11.0,-100.00,South,191,4.0,12.0,30,0.00,,,0.00,911.000000,,2013-04-23 20:11:00,
2013-04-23 14:21:00,40.0,11.0,-100.00,South,191,4.0,12.0,30,0.00,,,0.00,911.000000,,2013-04-23 20:21:00,
2013-04-23 14:31:00,40.0,11.0,-100.00,South,191,4.0,12.0,30,0.00,,,0.00,911.000000,,2013-04-23 20:31:00,
2013-04-23 15:01:00,42.0,11.0,-100.00,WSW,249,5.0,11.0,28,0.00,,,0.00,940.000000,,2013-04-23 21:01:00,
2013-04-23 15:11:00,42.0,11.0,-100.00,WSW,249,5.0,11.0,28,0.00,,,0.00,940.000000,,2013-04-23 21:11:00,
2013-04-23 15:21:00,42.0,11.0,-100.00,WSW,249,5.0,11.0,28,0.00,,,0.00,940.000000,,2013-04-23 21:21:00,
2013-04-23 15:32:00,42.0,11.0,-100.00,WSW,249,5.0,11.0,28,0.00,,,0.00,940.000000,,2013-04-23 21:32:00,
2013-04-23 16:03:00,42.0,10.0,-100.00,WSW,239,5.0,12.0,26,0.00,,,0.00,790.000000,,2013-04-23 22:03:00,
2013-04-23 16:12:00,42.0,10.0,-100.00,WSW,239,5.0,12.0,26,0.00,,,0.00,790.000000,,2013-04-23 22:12:00,
2013-04-23 16:22:00,42.0,10.0,-100.00,WSW,239,5.0,12.0,26,0.00,,,0.00,790.000000,,2013-04-23 22:22:00,
2013-04-23 16:32:00,42.0,10.0,-100.00,WSW,239,5.0,12.0,26,0.00,,,0.00,790.000000,,2013-04-23 22:32:00,
2013-04-23 17:02:00,39.0,5.0,-100.00,NW,307,4.0,11.0,24,0.00,,,0.00,560.000000,,2013-04-23 23:02:00,
2013-04-23 17:12:00,39.0,5.0,-100.00,NW,307,4.0,11.0,24,0.00,,,0.00,560.000000,,2013-04-23 23:12:00,
2013-04-23 17:22:00,39.0,5.0,-100.00,NW,307,4.0,11.0,24,0.00,,,0.00,560.000000,,2013-04-23 23:22:00,
2013-04-23 17:31:00,39.0,5.0,-100.00,NW,307,4.0,11.0,24,0.00,,,0.00,560.000000,,2013-04-23 23:31:00,
2013-04-23 18:01:00,38.0,5.0,-100.00,NW,321,2.0,10.0,25,0.00,,,0.00,240.000000,,2013-04-24 00:01:00,
2013-04-23 18:11:00,38.0,5.0,-100.00,NW,321,2.0,10.0,25,0.00,,,0.00,240.000000,,2013-04-24 00:11:00,
2013-04-23 18:21:00,38.0,5.0,-100.00,NW,321,2.0,10.0,25,0.00,,,0.00,240.000000,,2013-04-24 00:21:00,
2013-04-23 18:32:00,38.0,5.0,-100.00,NW,321,2.0,10.0,25,0.00,,,0.00,240.000000,,2013-04-24 00:32:00,
2013-04-23 19:01:00,37.0,8.0,-100.00,WSW,253,3.0,8.0,29,0.00,,,0.00,129.000000,,2013-04-24 01:01:00,
2013-04-23 19:11:00,37.0,8.0,-100.00,WSW,253,3.0,8.0,29,0.00,,,0.00,129.000000,,2013-04-24 01:11:00,
2013-04-23 19:21:00,37.0,8.0,-100.00,WSW,253,3.0,8.0,29,0.00,,,0.00,129.000000,,2013-04-24 01:21:00,
2013-04-23 19:31:00,37.0,8.0,-100.00,WSW,253,3.0,8.0,29,0.00,,,0.00,129.000000,,2013-04-24 01:31:00,
2013-04-23 20:02:00,36.0,8.0,-100.00,NW,315,4.0,8.0,31,0.00,,,0.00,73.000000,,2013-04-24 02:02:00,
2013-04-23 20:14:00,36.0,8.0,-100.00,NW,315,4.0,8.0,31,0.00,,,0.00,73.000000,,2013-04-24 02:14:00,
2013-04-23 20:33:00,36.0,8.0,-100.00,NW,315,4.0,8.0,31,0.00,,,0.00,73.000000,,2013-04-24 02:33:00,
2013-04-23 21:06:00,32.0,12.0,-100.00,WSW,250,2.0,7.0,42,0.00,,,0.00,9.000000,,2013-04-24 03:06:00,
2013-04-23 21:14:00,32.0,12.0,-100.00,WSW,250,2.0,7.0,42,0.00,,,0.00,9.000000,,2013-04-24 03:14:00,
2013-04-23 21:34:00,32.0,12.0,-100.00,WSW,250,2.0,7.0,42,0.00,,,0.00,9.000000,,2013-04-24 03:34:00,
2013-04-23 22:03:00,31.0,16.0,-100.00,WSW,257,2.0,6.0,53,0.00,,,0.00,0.000000,,2013-04-24 04:03:00,
2013-04-23 22:12:00,31.0,16.0,-100.00,WSW,257,2.0,6.0,53,0.00,,,0.00,0.000000,,2013-04-24 04:12:00,
2013-04-23 22:22:00,31.0,16.0,-100.00,WSW,257,2.0,6.0,53,0.00,,,0.00,0.000000,,2013-04-24 04:22:00,
2013-04-23 22:33:00,31.0,16.0,-100.00,WSW,257,2.0,6.0,53,0.00,,,0.00,0.000000,,2013-04-24 04:33:00,
2013-04-23 23:02:00,29.0,16.0,-100.00,NNE,15,2.0,6.0,59,0.00,,,0.00,0.000000,,2013-04-24 05:02:00,
2013-04-23 23:12:00,29.0,16.0,-100.00,NNE,15,2.0,6.0,59,0.00,,,0.00,0.000000,,2013-04-24 05:12:00,
2013-04-23 23:21:00,29.0,16.0,-100.00,NNE,15,2.0,6.0,59,0.00,,,0.00,0.000000,,2013-04-24 05:21:00,
2013-04-23 23:32:00,29.0,16.0,-100.00,NNE,15,2.0,6.0,59,0.00,,,0.00,0.000000,,2013-04-24 05:32:00,